sensor_id;sensor_type;location;lat;lon;timestamp;P1;durP1;ratioP1;P2;durP2;ratioP2
27025;SDS011;14565;48.626;8.978;2023-05-23T00:00:54;31.40;;;22.00;;
27025;SDS011;14565;48.626;8.978;2023-05-23T00:05:48;33.35;;;23.42;;
27025;SDS011;14565;48.626;8.978;2023-05-23T00:08:15;39.30;;;24.52;;
27025;SDS011;14565;48.626;8.978;2023-05-23T00:10:41;36.67;;;24.15;;
27025;SDS011;14565;48.626;8.978;2023-05-23T00:13:07;34.72;;;23.98;;
27025;SDS011;14565;48.626;8.978;2023-05-23T00:15:36;34.97;;;23.20;;
27025;SDS011;14565;48.626;8.978;2023-05-23T00:18:02;38.97;;;25.73;;
27025;SDS011;14565;48.626;8.978;2023-05-23T00:20:28;37.65;;;24.05;;
27025;SDS011;14565;48.626;8.978;2023-05-23T00:22:54;39.35;;;25.70;;
27025;SDS011;14565;48.626;8.978;2023-05-23T00:25:22;41.58;;;24.90;;
27025;SDS011;14565;48.626;8.978;2023-05-23T00:27:49;37.47;;;26.75;;
27025;SDS011;14565;48.626;8.978;2023-05-23T00:30:15;43.80;;;27.52;;
27025;SDS011;14565;48.626;8.978;2023-05-23T00:32:40;45.35;;;27.92;;
27025;SDS011;14565;48.626;8.978;2023-05-23T00:35:06;41.92;;;26.45;;
27025;SDS011;14565;48.626;8.978;2023-05-23T00:37:32;39.88;;;25.65;;
27025;SDS011;14565;48.626;8.978;2023-05-23T00:39:58;46.70;;;28.75;;
27025;SDS011;14565;48.626;8.978;2023-05-23T00:42:24;44.72;;;28.17;;
27025;SDS011;14565;48.626;8.978;2023-05-23T00:44:50;49.78;;;30.42;;
27025;SDS011;14565;48.626;8.978;2023-05-23T00:47:15;53.20;;;31.67;;
27025;SDS011;14565;48.626;8.978;2023-05-23T00:49:42;45.85;;;29.13;;
27025;SDS011;14565;48.626;8.978;2023-05-23T00:52:08;53.08;;;31.45;;
27025;SDS011;14565;48.626;8.978;2023-05-23T00:54:34;52.10;;;32.08;;
27025;SDS011;14565;48.626;8.978;2023-05-23T00:57:00;53.72;;;31.25;;
27025;SDS011;14565;48.626;8.978;2023-05-23T00:59:26;54.95;;;33.10;;
27025;SDS011;14565;48.626;8.978;2023-05-23T01:01:53;54.40;;;31.20;;
27025;SDS011;14565;48.626;8.978;2023-05-23T01:06:51;54.78;;;32.28;;
27025;SDS011;14565;48.626;8.978;2023-05-23T01:09:20;61.92;;;34.50;;
27025;SDS011;14565;48.626;8.978;2023-05-23T01:17:38;61.00;;;35.22;;
27025;SDS011;14565;48.626;8.978;2023-05-23T01:21:02;61.65;;;35.33;;
27025;SDS011;14565;48.626;8.978;2023-05-23T01:28:47;67.07;;;36.30;;
27025;SDS011;14565;48.626;8.978;2023-05-23T01:31:18;63.20;;;36.83;;
27025;SDS011;14565;48.626;8.978;2023-05-23T01:33:45;62.78;;;36.83;;
27025;SDS011;14565;48.626;8.978;2023-05-23T01:36:14;63.28;;;37.65;;
27025;SDS011;14565;48.626;8.978;2023-05-23T01:38:40;67.15;;;39.05;;
27025;SDS011;14565;48.626;8.978;2023-05-23T01:41:05;91.78;;;47.58;;
27025;SDS011;14565;48.626;8.978;2023-05-23T01:43:31;88.85;;;47.30;;
27025;SDS011;14565;48.626;8.978;2023-05-23T01:45:57;91.10;;;47.60;;
27025;SDS011;14565;48.626;8.978;2023-05-23T01:48:24;90.05;;;49.70;;
27025;SDS011;14565;48.626;8.978;2023-05-23T01:50:52;88.00;;;49.90;;
27025;SDS011;14565;48.626;8.978;2023-05-23T01:53:19;96.88;;;50.53;;
27025;SDS011;14565;48.626;8.978;2023-05-23T01:55:48;105.18;;;54.10;;
27025;SDS011;14565;48.626;8.978;2023-05-23T01:58:15;112.97;;;57.22;;
27025;SDS011;14565;48.626;8.978;2023-05-23T02:00:41;106.05;;;54.58;;
27025;SDS011;14565;48.626;8.978;2023-05-23T02:03:06;107.43;;;55.45;;
27025;SDS011;14565;48.626;8.978;2023-05-23T02:05:32;103.72;;;52.45;;
27025;SDS011;14565;48.626;8.978;2023-05-23T02:07:58;101.82;;;52.92;;
27025;SDS011;14565;48.626;8.978;2023-05-23T02:10:23;101.53;;;51.63;;
27025;SDS011;14565;48.626;8.978;2023-05-23T02:12:49;97.38;;;52.35;;
27025;SDS011;14565;48.626;8.978;2023-05-23T02:15:14;90.45;;;47.65;;
27025;SDS011;14565;48.626;8.978;2023-05-23T02:17:41;97.60;;;49.28;;
27025;SDS011;14565;48.626;8.978;2023-05-23T02:20:07;91.38;;;48.03;;
27025;SDS011;14565;48.626;8.978;2023-05-23T02:22:34;95.47;;;49.50;;
27025;SDS011;14565;48.626;8.978;2023-05-23T02:24:59;92.65;;;52.00;;
27025;SDS011;14565;48.626;8.978;2023-05-23T02:27:25;104.85;;;55.03;;
27025;SDS011;14565;48.626;8.978;2023-05-23T02:29:51;95.55;;;52.25;;
27025;SDS011;14565;48.626;8.978;2023-05-23T02:32:16;96.38;;;53.35;;
27025;SDS011;14565;48.626;8.978;2023-05-23T02:34:42;101.25;;;53.17;;
27025;SDS011;14565;48.626;8.978;2023-05-23T02:37:10;93.72;;;51.58;;
27025;SDS011;14565;48.626;8.978;2023-05-23T02:39:37;93.40;;;51.40;;
27025;SDS011;14565;48.626;8.978;2023-05-23T02:42:03;100.68;;;53.63;;
27025;SDS011;14565;48.626;8.978;2023-05-23T02:44:28;101.85;;;55.72;;
27025;SDS011;14565;48.626;8.978;2023-05-23T02:46:54;99.53;;;53.63;;
27025;SDS011;14565;48.626;8.978;2023-05-23T02:49:20;98.40;;;55.00;;
27025;SDS011;14565;48.626;8.978;2023-05-23T02:51:45;89.18;;;51.55;;
27025;SDS011;14565;48.626;8.978;2023-05-23T02:54:11;97.72;;;54.25;;
27025;SDS011;14565;48.626;8.978;2023-05-23T02:56:37;95.18;;;53.45;;
27025;SDS011;14565;48.626;8.978;2023-05-23T02:59:02;115.55;;;59.65;;
27025;SDS011;14565;48.626;8.978;2023-05-23T03:01:28;100.93;;;56.45;;
27025;SDS011;14565;48.626;8.978;2023-05-23T03:03:54;110.38;;;58.83;;
27025;SDS011;14565;48.626;8.978;2023-05-23T03:06:20;108.07;;;59.92;;
27025;SDS011;14565;48.626;8.978;2023-05-23T03:08:46;103.47;;;56.88;;
27025;SDS011;14565;48.626;8.978;2023-05-23T03:11:12;101.25;;;56.03;;
27025;SDS011;14565;48.626;8.978;2023-05-23T03:13:37;97.95;;;57.08;;
27025;SDS011;14565;48.626;8.978;2023-05-23T03:16:03;101.90;;;56.03;;
27025;SDS011;14565;48.626;8.978;2023-05-23T03:18:29;104.47;;;56.92;;
27025;SDS011;14565;48.626;8.978;2023-05-23T03:20:54;94.47;;;54.80;;
27025;SDS011;14565;48.626;8.978;2023-05-23T03:23:20;105.82;;;58.00;;
27025;SDS011;14565;48.626;8.978;2023-05-23T03:25:46;97.00;;;55.97;;
27025;SDS011;14565;48.626;8.978;2023-05-23T03:28:13;98.88;;;55.60;;
27025;SDS011;14565;48.626;8.978;2023-05-23T03:30:39;95.32;;;55.08;;
27025;SDS011;14565;48.626;8.978;2023-05-23T03:33:04;99.82;;;55.83;;
27025;SDS011;14565;48.626;8.978;2023-05-23T03:35:31;96.78;;;56.03;;
27025;SDS011;14565;48.626;8.978;2023-05-23T03:37:56;100.55;;;57.30;;
27025;SDS011;14565;48.626;8.978;2023-05-23T03:40:22;96.75;;;56.47;;
27025;SDS011;14565;48.626;8.978;2023-05-23T03:42:48;95.35;;;54.45;;
27025;SDS011;14565;48.626;8.978;2023-05-23T03:45:34;93.03;;;53.35;;
27025;SDS011;14565;48.626;8.978;2023-05-23T03:48:00;97.57;;;54.05;;
27025;SDS011;14565;48.626;8.978;2023-05-23T03:50:26;100.32;;;58.65;;
27025;SDS011;14565;48.626;8.978;2023-05-23T03:52:52;93.82;;;52.85;;
27025;SDS011;14565;48.626;8.978;2023-05-23T03:55:21;90.47;;;53.38;;
27025;SDS011;14565;48.626;8.978;2023-05-23T03:57:48;90.72;;;53.35;;
27025;SDS011;14565;48.626;8.978;2023-05-23T04:00:15;95.55;;;54.45;;
27025;SDS011;14565;48.626;8.978;2023-05-23T04:02:42;91.43;;;52.40;;
27025;SDS011;14565;48.626;8.978;2023-05-23T04:05:11;91.40;;;54.00;;
27025;SDS011;14565;48.626;8.978;2023-05-23T04:07:37;87.30;;;51.45;;
27025;SDS011;14565;48.626;8.978;2023-05-23T04:10:03;86.22;;;53.50;;
27025;SDS011;14565;48.626;8.978;2023-05-23T04:12:29;83.38;;;50.03;;
27025;SDS011;14565;48.626;8.978;2023-05-23T04:14:55;82.95;;;49.60;;
27025;SDS011;14565;48.626;8.978;2023-05-23T04:17:21;85.05;;;49.85;;
27025;SDS011;14565;48.626;8.978;2023-05-23T04:19:48;77.70;;;49.55;;
27025;SDS011;14565;48.626;8.978;2023-05-23T04:22:14;79.28;;;49.97;;
27025;SDS011;14565;48.626;8.978;2023-05-23T04:24:40;89.38;;;51.25;;
27025;SDS011;14565;48.626;8.978;2023-05-23T04:27:06;83.90;;;51.22;;
27025;SDS011;14565;48.626;8.978;2023-05-23T04:29:33;82.57;;;50.30;;
27025;SDS011;14565;48.626;8.978;2023-05-23T04:31:59;82.50;;;51.30;;
27025;SDS011;14565;48.626;8.978;2023-05-23T04:34:26;74.55;;;49.13;;
27025;SDS011;14565;48.626;8.978;2023-05-23T04:36:51;76.70;;;47.72;;
27025;SDS011;14565;48.626;8.978;2023-05-23T04:39:18;73.43;;;47.17;;
27025;SDS011;14565;48.626;8.978;2023-05-23T04:41:44;81.60;;;49.45;;
27025;SDS011;14565;48.626;8.978;2023-05-23T04:44:10;74.43;;;48.85;;
27025;SDS011;14565;48.626;8.978;2023-05-23T04:46:36;77.85;;;49.75;;
27025;SDS011;14565;48.626;8.978;2023-05-23T04:49:06;83.25;;;50.40;;
27025;SDS011;14565;48.626;8.978;2023-05-23T04:51:32;76.05;;;49.83;;
27025;SDS011;14565;48.626;8.978;2023-05-23T04:53:59;84.13;;;50.60;;
27025;SDS011;14565;48.626;8.978;2023-05-23T04:56:25;81.10;;;49.30;;
27025;SDS011;14565;48.626;8.978;2023-05-23T04:58:52;81.13;;;52.55;;
27025;SDS011;14565;48.626;8.978;2023-05-23T05:01:23;82.05;;;51.58;;
27025;SDS011;14565;48.626;8.978;2023-05-23T05:03:49;84.85;;;53.35;;
27025;SDS011;14565;48.626;8.978;2023-05-23T05:06:16;84.88;;;53.17;;
27025;SDS011;14565;48.626;8.978;2023-05-23T05:08:42;86.75;;;54.08;;
27025;SDS011;14565;48.626;8.978;2023-05-23T05:11:08;81.50;;;52.80;;
27025;SDS011;14565;48.626;8.978;2023-05-23T05:13:34;81.95;;;52.92;;
27025;SDS011;14565;48.626;8.978;2023-05-23T05:16:00;86.43;;;53.85;;
27025;SDS011;14565;48.626;8.978;2023-05-23T05:18:26;81.13;;;52.15;;
27025;SDS011;14565;48.626;8.978;2023-05-23T05:20:52;81.22;;;55.05;;
27025;SDS011;14565;48.626;8.978;2023-05-23T05:23:18;82.88;;;55.97;;
27025;SDS011;14565;48.626;8.978;2023-05-23T05:25:44;84.72;;;56.60;;
27025;SDS011;14565;48.626;8.978;2023-05-23T05:28:10;79.40;;;54.63;;
27025;SDS011;14565;48.626;8.978;2023-05-23T05:30:36;83.10;;;56.20;;
27025;SDS011;14565;48.626;8.978;2023-05-23T05:33:02;90.00;;;56.08;;
27025;SDS011;14565;48.626;8.978;2023-05-23T05:35:30;85.25;;;56.00;;
27025;SDS011;14565;48.626;8.978;2023-05-23T05:37:56;84.82;;;59.03;;
27025;SDS011;14565;48.626;8.978;2023-05-23T05:40:22;81.78;;;57.70;;
27025;SDS011;14565;48.626;8.978;2023-05-23T05:42:48;86.80;;;59.03;;
27025;SDS011;14565;48.626;8.978;2023-05-23T05:45:14;88.15;;;57.83;;
27025;SDS011;14565;48.626;8.978;2023-05-23T05:47:39;90.63;;;57.10;;
27025;SDS011;14565;48.626;8.978;2023-05-23T05:50:05;84.65;;;56.85;;
27025;SDS011;14565;48.626;8.978;2023-05-23T05:52:34;87.03;;;57.72;;
27025;SDS011;14565;48.626;8.978;2023-05-23T05:55:04;83.57;;;57.65;;
27025;SDS011;14565;48.626;8.978;2023-05-23T05:57:30;87.77;;;56.93;;
27025;SDS011;14565;48.626;8.978;2023-05-23T05:59:57;78.93;;;54.92;;
27025;SDS011;14565;48.626;8.978;2023-05-23T06:02:22;77.70;;;54.80;;
27025;SDS011;14565;48.626;8.978;2023-05-23T06:04:48;80.22;;;56.33;;
27025;SDS011;14565;48.626;8.978;2023-05-23T06:07:14;86.03;;;55.65;;
27025;SDS011;14565;48.626;8.978;2023-05-23T06:09:40;81.22;;;54.20;;
27025;SDS011;14565;48.626;8.978;2023-05-23T06:12:06;72.55;;;52.13;;
27025;SDS011;14565;48.626;8.978;2023-05-23T06:14:31;76.10;;;52.10;;
27025;SDS011;14565;48.626;8.978;2023-05-23T06:16:57;71.05;;;51.08;;
27025;SDS011;14565;48.626;8.978;2023-05-23T06:19:23;73.82;;;53.92;;
27025;SDS011;14565;48.626;8.978;2023-05-23T06:21:49;74.05;;;51.60;;
27025;SDS011;14565;48.626;8.978;2023-05-23T06:24:15;74.88;;;53.05;;
27025;SDS011;14565;48.626;8.978;2023-05-23T06:26:40;66.57;;;49.45;;
27025;SDS011;14565;48.626;8.978;2023-05-23T06:29:06;75.25;;;53.45;;
27025;SDS011;14565;48.626;8.978;2023-05-23T06:31:32;64.97;;;48.10;;
27025;SDS011;14565;48.626;8.978;2023-05-23T06:33:57;69.07;;;50.45;;
27025;SDS011;14565;48.626;8.978;2023-05-23T06:36:23;67.05;;;48.67;;
27025;SDS011;14565;48.626;8.978;2023-05-23T06:38:49;73.30;;;47.15;;
27025;SDS011;14565;48.626;8.978;2023-05-23T06:41:14;60.40;;;45.13;;
27025;SDS011;14565;48.626;8.978;2023-05-23T06:43:40;58.10;;;45.00;;
27025;SDS011;14565;48.626;8.978;2023-05-23T06:46:05;62.42;;;47.00;;
27025;SDS011;14565;48.626;8.978;2023-05-23T06:48:31;61.45;;;45.20;;
27025;SDS011;14565;48.626;8.978;2023-05-23T06:50:57;57.20;;;43.25;;
27025;SDS011;14565;48.626;8.978;2023-05-23T06:53:22;59.92;;;43.00;;
27025;SDS011;14565;48.626;8.978;2023-05-23T06:55:48;58.47;;;43.35;;
27025;SDS011;14565;48.626;8.978;2023-05-23T06:58:14;65.43;;;43.92;;
27025;SDS011;14565;48.626;8.978;2023-05-23T07:00:39;56.78;;;43.53;;
27025;SDS011;14565;48.626;8.978;2023-05-23T07:03:05;54.88;;;42.95;;
27025;SDS011;14565;48.626;8.978;2023-05-23T07:05:31;52.78;;;40.50;;
27025;SDS011;14565;48.626;8.978;2023-05-23T07:07:58;58.35;;;42.65;;
27025;SDS011;14565;48.626;8.978;2023-05-23T07:10:24;54.97;;;42.83;;
27025;SDS011;14565;48.626;8.978;2023-05-23T07:12:50;63.20;;;42.75;;
27025;SDS011;14565;48.626;8.978;2023-05-23T07:15:16;57.47;;;41.55;;
27025;SDS011;14565;48.626;8.978;2023-05-23T07:17:42;54.38;;;39.65;;
27025;SDS011;14565;48.626;8.978;2023-05-23T07:20:11;53.95;;;40.22;;
27025;SDS011;14565;48.626;8.978;2023-05-23T07:22:37;51.70;;;41.22;;
27025;SDS011;14565;48.626;8.978;2023-05-23T07:25:03;56.10;;;44.05;;
27025;SDS011;14565;48.626;8.978;2023-05-23T07:27:34;56.90;;;42.75;;
27025;SDS011;14565;48.626;8.978;2023-05-23T07:30:00;56.17;;;42.05;;
27025;SDS011;14565;48.626;8.978;2023-05-23T07:32:26;57.97;;;43.92;;
27025;SDS011;14565;48.626;8.978;2023-05-23T07:34:51;54.88;;;42.72;;
27025;SDS011;14565;48.626;8.978;2023-05-23T07:37:17;54.63;;;40.85;;
27025;SDS011;14565;48.626;8.978;2023-05-23T07:39:42;54.17;;;39.70;;
27025;SDS011;14565;48.626;8.978;2023-05-23T07:42:08;51.78;;;38.60;;
27025;SDS011;14565;48.626;8.978;2023-05-23T07:44:34;51.75;;;39.13;;
27025;SDS011;14565;48.626;8.978;2023-05-23T07:47:00;55.33;;;37.40;;
27025;SDS011;14565;48.626;8.978;2023-05-23T07:49:25;48.00;;;34.83;;
27025;SDS011;14565;48.626;8.978;2023-05-23T07:51:51;45.83;;;35.63;;
27025;SDS011;14565;48.626;8.978;2023-05-23T07:54:17;43.67;;;34.13;;
27025;SDS011;14565;48.626;8.978;2023-05-23T07:56:42;48.55;;;36.30;;
27025;SDS011;14565;48.626;8.978;2023-05-23T07:59:08;48.47;;;36.83;;
27025;SDS011;14565;48.626;8.978;2023-05-23T08:01:36;53.05;;;38.38;;
27025;SDS011;14565;48.626;8.978;2023-05-23T08:04:02;48.42;;;37.97;;
27025;SDS011;14565;48.626;8.978;2023-05-23T08:06:27;46.20;;;36.08;;
27025;SDS011;14565;48.626;8.978;2023-05-23T08:08:53;44.10;;;34.55;;
27025;SDS011;14565;48.626;8.978;2023-05-23T08:11:21;40.70;;;33.13;;
27025;SDS011;14565;48.626;8.978;2023-05-23T08:13:47;41.80;;;32.95;;
27025;SDS011;14565;48.626;8.978;2023-05-23T08:16:13;41.45;;;32.83;;
27025;SDS011;14565;48.626;8.978;2023-05-23T08:18:38;46.22;;;32.65;;
27025;SDS011;14565;48.626;8.978;2023-05-23T08:21:04;44.05;;;32.75;;
27025;SDS011;14565;48.626;8.978;2023-05-23T08:23:30;38.90;;;30.60;;
27025;SDS011;14565;48.626;8.978;2023-05-23T08:25:56;40.38;;;32.72;;
27025;SDS011;14565;48.626;8.978;2023-05-23T08:28:21;42.22;;;32.58;;
27025;SDS011;14565;48.626;8.978;2023-05-23T08:30:47;47.25;;;32.53;;
27025;SDS011;14565;48.626;8.978;2023-05-23T08:33:13;41.53;;;32.25;;
27025;SDS011;14565;48.626;8.978;2023-05-23T08:35:39;37.80;;;30.20;;
27025;SDS011;14565;48.626;8.978;2023-05-23T08:38:05;33.83;;;28.40;;
27025;SDS011;14565;48.626;8.978;2023-05-23T08:40:31;34.80;;;27.70;;
27025;SDS011;14565;48.626;8.978;2023-05-23T08:42:58;36.85;;;29.20;;
27025;SDS011;14565;48.626;8.978;2023-05-23T08:45:24;40.67;;;26.45;;
27025;SDS011;14565;48.626;8.978;2023-05-23T08:47:50;35.75;;;26.92;;
27025;SDS011;14565;48.626;8.978;2023-05-23T08:50:16;34.50;;;27.40;;
27025;SDS011;14565;48.626;8.978;2023-05-23T08:52:43;34.17;;;27.17;;
27025;SDS011;14565;48.626;8.978;2023-05-23T08:55:18;32.35;;;25.92;;
27025;SDS011;14565;48.626;8.978;2023-05-23T08:57:44;31.45;;;24.08;;
27025;SDS011;14565;48.626;8.978;2023-05-23T09:00:10;30.00;;;24.60;;
27025;SDS011;14565;48.626;8.978;2023-05-23T09:02:39;32.97;;;25.35;;
27025;SDS011;14565;48.626;8.978;2023-05-23T09:05:07;30.60;;;24.08;;
27025;SDS011;14565;48.626;8.978;2023-05-23T09:07:34;26.70;;;22.95;;
27025;SDS011;14565;48.626;8.978;2023-05-23T09:10:01;27.43;;;22.00;;
27025;SDS011;14565;48.626;8.978;2023-05-23T09:12:27;28.05;;;20.88;;
27025;SDS011;14565;48.626;8.978;2023-05-23T09:14:53;27.17;;;21.80;;
27025;SDS011;14565;48.626;8.978;2023-05-23T09:17:19;28.88;;;21.27;;
27025;SDS011;14565;48.626;8.978;2023-05-23T09:19:45;24.20;;;19.63;;
27025;SDS011;14565;48.626;8.978;2023-05-23T09:22:11;26.42;;;20.60;;
27025;SDS011;14565;48.626;8.978;2023-05-23T09:24:37;21.98;;;18.05;;
27025;SDS011;14565;48.626;8.978;2023-05-23T09:27:06;25.30;;;20.92;;
27025;SDS011;14565;48.626;8.978;2023-05-23T09:29:35;25.25;;;20.17;;
27025;SDS011;14565;48.626;8.978;2023-05-23T09:32:14;26.95;;;20.30;;
27025;SDS011;14565;48.626;8.978;2023-05-23T09:35:02;23.80;;;19.75;;
27025;SDS011;14565;48.626;8.978;2023-05-23T09:37:31;22.95;;;19.85;;
27025;SDS011;14565;48.626;8.978;2023-05-23T09:40:01;24.70;;;20.27;;
27025;SDS011;14565;48.626;8.978;2023-05-23T09:42:33;27.10;;;21.13;;
27025;SDS011;14565;48.626;8.978;2023-05-23T09:44:59;22.67;;;19.13;;
27025;SDS011;14565;48.626;8.978;2023-05-23T09:47:25;23.55;;;19.42;;
27025;SDS011;14565;48.626;8.978;2023-05-23T09:49:53;23.05;;;20.40;;
27025;SDS011;14565;48.626;8.978;2023-05-23T09:52:20;23.80;;;19.05;;
27025;SDS011;14565;48.626;8.978;2023-05-23T09:54:46;25.38;;;20.58;;
27025;SDS011;14565;48.626;8.978;2023-05-23T09:57:13;25.15;;;19.05;;
27025;SDS011;14565;48.626;8.978;2023-05-23T09:59:44;23.48;;;18.63;;
27025;SDS011;14565;48.626;8.978;2023-05-23T10:02:47;22.00;;;17.45;;
27025;SDS011;14565;48.626;8.978;2023-05-23T10:05:10;20.10;;;16.85;;
27025;SDS011;14565;48.626;8.978;2023-05-23T10:07:48;21.88;;;16.35;;
27025;SDS011;14565;48.626;8.978;2023-05-23T10:10:14;21.73;;;17.15;;
27025;SDS011;14565;48.626;8.978;2023-05-23T10:15:14;20.15;;;16.67;;
27025;SDS011;14565;48.626;8.978;2023-05-23T10:18:01;23.25;;;15.95;;
27025;SDS011;14565;48.626;8.978;2023-05-23T10:20:31;21.63;;;17.73;;
27025;SDS011;14565;48.626;8.978;2023-05-23T10:22:59;19.45;;;15.77;;
27025;SDS011;14565;48.626;8.978;2023-05-23T10:25:26;19.77;;;15.15;;
27025;SDS011;14565;48.626;8.978;2023-05-23T10:27:56;21.60;;;15.48;;
27025;SDS011;14565;48.626;8.978;2023-05-23T10:30:26;18.98;;;14.60;;
27025;SDS011;14565;48.626;8.978;2023-05-23T10:32:55;20.75;;;15.00;;
27025;SDS011;14565;48.626;8.978;2023-05-23T10:40:52;17.38;;;12.98;;
27025;SDS011;14565;48.626;8.978;2023-05-23T10:46:21;16.98;;;14.70;;
27025;SDS011;14565;48.626;8.978;2023-05-23T10:48:47;17.70;;;14.27;;
27025;SDS011;14565;48.626;8.978;2023-05-23T10:51:17;14.18;;;12.50;;
27025;SDS011;14565;48.626;8.978;2023-05-23T10:53:44;14.52;;;11.60;;
27025;SDS011;14565;48.626;8.978;2023-05-23T10:56:17;13.93;;;12.23;;
27025;SDS011;14565;48.626;8.978;2023-05-23T10:58:54;13.65;;;11.98;;
27025;SDS011;14565;48.626;8.978;2023-05-23T11:01:20;11.90;;;10.63;;
27025;SDS011;14565;48.626;8.978;2023-05-23T11:09:12;15.27;;;12.05;;
27025;SDS011;14565;48.626;8.978;2023-05-23T11:16:57;12.93;;;11.02;;
27025;SDS011;14565;48.626;8.978;2023-05-23T11:19:23;11.35;;;10.15;;
27025;SDS011;14565;48.626;8.978;2023-05-23T11:21:58;14.43;;;12.75;;
27025;SDS011;14565;48.626;8.978;2023-05-23T11:25:07;12.48;;;11.00;;
27025;SDS011;14565;48.626;8.978;2023-05-23T11:27:27;17.77;;;12.45;;
27025;SDS011;14565;48.626;8.978;2023-05-23T11:30:16;17.73;;;12.93;;
27025;SDS011;14565;48.626;8.978;2023-05-23T11:32:52;15.57;;;12.95;;
27025;SDS011;14565;48.626;8.978;2023-05-23T11:35:19;16.70;;;12.98;;
27025;SDS011;14565;48.626;8.978;2023-05-23T11:37:45;15.57;;;13.70;;
27025;SDS011;14565;48.626;8.978;2023-05-23T11:40:31;18.98;;;12.30;;
27025;SDS011;14565;48.626;8.978;2023-05-23T11:42:59;14.80;;;12.63;;
27025;SDS011;14565;48.626;8.978;2023-05-23T11:47:53;17.17;;;12.80;;
27025;SDS011;14565;48.626;8.978;2023-05-23T11:50:19;14.95;;;13.40;;
27025;SDS011;14565;48.626;8.978;2023-05-23T11:52:46;20.80;;;13.90;;
27025;SDS011;14565;48.626;8.978;2023-05-23T11:55:16;14.48;;;12.90;;
27025;SDS011;14565;48.626;8.978;2023-05-23T11:57:43;16.20;;;11.82;;
27025;SDS011;14565;48.626;8.978;2023-05-23T12:00:08;13.77;;;11.40;;
27025;SDS011;14565;48.626;8.978;2023-05-23T12:02:40;12.57;;;11.27;;
27025;SDS011;14565;48.626;8.978;2023-05-23T12:05:10;11.80;;;10.43;;
27025;SDS011;14565;48.626;8.978;2023-05-23T12:07:41;15.30;;;9.80;;
27025;SDS011;14565;48.626;8.978;2023-05-23T12:10:08;10.70;;;9.60;;
27025;SDS011;14565;48.626;8.978;2023-05-23T12:12:34;11.57;;;9.40;;
27025;SDS011;14565;48.626;8.978;2023-05-23T12:15:00;11.48;;;10.10;;
27025;SDS011;14565;48.626;8.978;2023-05-23T12:17:26;11.27;;;9.68;;
27025;SDS011;14565;48.626;8.978;2023-05-23T12:19:52;10.27;;;9.15;;
27025;SDS011;14565;48.626;8.978;2023-05-23T12:22:24;9.10;;;7.93;;
27025;SDS011;14565;48.626;8.978;2023-05-23T12:24:53;10.23;;;8.45;;
27025;SDS011;14565;48.626;8.978;2023-05-23T12:27:25;12.38;;;9.32;;
27025;SDS011;14565;48.626;8.978;2023-05-23T12:32:31;8.82;;;7.57;;
27025;SDS011;14565;48.626;8.978;2023-05-23T12:34:57;10.68;;;7.20;;
27025;SDS011;14565;48.626;8.978;2023-05-23T12:37:23;7.20;;;6.50;;
27025;SDS011;14565;48.626;8.978;2023-05-23T12:39:49;6.90;;;6.20;;
27025;SDS011;14565;48.626;8.978;2023-05-23T12:42:15;8.15;;;5.90;;
27025;SDS011;14565;48.626;8.978;2023-05-23T12:44:41;6.55;;;5.85;;
27025;SDS011;14565;48.626;8.978;2023-05-23T12:47:11;7.07;;;5.57;;
27025;SDS011;14565;48.626;8.978;2023-05-23T12:49:37;6.47;;;5.75;;
27025;SDS011;14565;48.626;8.978;2023-05-23T12:52:02;7.45;;;6.40;;
27025;SDS011;14565;48.626;8.978;2023-05-23T12:54:28;7.28;;;5.90;;
27025;SDS011;14565;48.626;8.978;2023-05-23T12:56:54;8.07;;;5.70;;
27025;SDS011;14565;48.626;8.978;2023-05-23T12:59:19;6.18;;;5.57;;
27025;SDS011;14565;48.626;8.978;2023-05-23T13:01:45;6.00;;;5.40;;
27025;SDS011;14565;48.626;8.978;2023-05-23T13:04:11;7.28;;;5.80;;
27025;SDS011;14565;48.626;8.978;2023-05-23T13:06:36;6.38;;;5.70;;
27025;SDS011;14565;48.626;8.978;2023-05-23T13:09:02;6.55;;;5.95;;
27025;SDS011;14565;48.626;8.978;2023-05-23T13:11:28;6.65;;;5.30;;
27025;SDS011;14565;48.626;8.978;2023-05-23T13:13:55;5.75;;;5.13;;
27025;SDS011;14565;48.626;8.978;2023-05-23T13:16:21;8.27;;;4.88;;
27025;SDS011;14565;48.626;8.978;2023-05-23T13:18:47;6.80;;;5.10;;
27025;SDS011;14565;48.626;8.978;2023-05-23T13:21:12;6.22;;;5.30;;
27025;SDS011;14565;48.626;8.978;2023-05-23T13:23:38;5.88;;;5.28;;
27025;SDS011;14565;48.626;8.978;2023-05-23T13:26:04;7.32;;;5.03;;
27025;SDS011;14565;48.626;8.978;2023-05-23T13:28:30;7.47;;;5.63;;
27025;SDS011;14565;48.626;8.978;2023-05-23T13:30:56;6.40;;;5.25;;
27025;SDS011;14565;48.626;8.978;2023-05-23T13:33:22;6.25;;;5.20;;
27025;SDS011;14565;48.626;8.978;2023-05-23T13:35:48;6.68;;;4.70;;
27025;SDS011;14565;48.626;8.978;2023-05-23T13:38:16;7.18;;;4.68;;
27025;SDS011;14565;48.626;8.978;2023-05-23T13:40:42;5.43;;;4.60;;
27025;SDS011;14565;48.626;8.978;2023-05-23T13:43:08;8.13;;;5.55;;
27025;SDS011;14565;48.626;8.978;2023-05-23T13:45:34;4.78;;;4.05;;
27025;SDS011;14565;48.626;8.978;2023-05-23T13:47:59;5.70;;;5.05;;
27025;SDS011;14565;48.626;8.978;2023-05-23T13:50:25;4.80;;;4.30;;
27025;SDS011;14565;48.626;8.978;2023-05-23T13:52:51;4.93;;;4.43;;
27025;SDS011;14565;48.626;8.978;2023-05-23T13:55:16;4.25;;;3.85;;
27025;SDS011;14565;48.626;8.978;2023-05-23T13:57:42;8.27;;;4.35;;
27025;SDS011;14565;48.626;8.978;2023-05-23T14:00:09;7.57;;;5.25;;
27025;SDS011;14565;48.626;8.978;2023-05-23T14:02:35;5.97;;;5.38;;
27025;SDS011;14565;48.626;8.978;2023-05-23T14:05:01;5.53;;;5.03;;
27025;SDS011;14565;48.626;8.978;2023-05-23T14:07:27;5.07;;;4.57;;
27025;SDS011;14565;48.626;8.978;2023-05-23T14:09:52;6.85;;;4.60;;
27025;SDS011;14565;48.626;8.978;2023-05-23T14:12:18;5.75;;;4.00;;
27025;SDS011;14565;48.626;8.978;2023-05-23T14:14:44;5.65;;;4.50;;
27025;SDS011;14565;48.626;8.978;2023-05-23T14:17:13;5.88;;;4.20;;
27025;SDS011;14565;48.626;8.978;2023-05-23T14:19:40;5.55;;;4.18;;
27025;SDS011;14565;48.626;8.978;2023-05-23T14:22:05;5.82;;;4.72;;
27025;SDS011;14565;48.626;8.978;2023-05-23T14:24:31;5.22;;;4.35;;
27025;SDS011;14565;48.626;8.978;2023-05-23T14:26:57;6.38;;;4.20;;
27025;SDS011;14565;48.626;8.978;2023-05-23T14:29:22;4.57;;;4.18;;
27025;SDS011;14565;48.626;8.978;2023-05-23T14:31:48;5.90;;;4.57;;
27025;SDS011;14565;48.626;8.978;2023-05-23T14:34:13;5.90;;;4.45;;
27025;SDS011;14565;48.626;8.978;2023-05-23T14:36:39;6.22;;;4.82;;
27025;SDS011;14565;48.626;8.978;2023-05-23T14:39:05;4.70;;;4.22;;
27025;SDS011;14565;48.626;8.978;2023-05-23T14:41:31;6.45;;;4.53;;
27025;SDS011;14565;48.626;8.978;2023-05-23T14:43:57;5.28;;;4.22;;
27025;SDS011;14565;48.626;8.978;2023-05-23T14:46:23;6.10;;;4.43;;
27025;SDS011;14565;48.626;8.978;2023-05-23T14:48:48;5.10;;;4.32;;
27025;SDS011;14565;48.626;8.978;2023-05-23T14:51:14;8.05;;;4.50;;
27025;SDS011;14565;48.626;8.978;2023-05-23T14:53:40;7.35;;;4.75;;
27025;SDS011;14565;48.626;8.978;2023-05-23T14:56:05;6.80;;;5.45;;
27025;SDS011;14565;48.626;8.978;2023-05-23T14:58:31;5.60;;;5.10;;
27025;SDS011;14565;48.626;8.978;2023-05-23T15:00:57;6.80;;;4.82;;
27025;SDS011;14565;48.626;8.978;2023-05-23T15:03:23;5.47;;;4.90;;
27025;SDS011;14565;48.626;8.978;2023-05-23T15:05:48;4.72;;;4.20;;
27025;SDS011;14565;48.626;8.978;2023-05-23T15:08:14;6.50;;;4.40;;